Nearby METAR Reports

Here are local weather reports from nearby weather stations and airports.

KHFD - Hartford/Brainar, Connecticut, USA
Distance from station: NE 5mi, 8km
Updated: Tue, 02/27/24 2:43am EST
Mist, Clear
Mist, Clear
 Wind from calm
Wind: Calm
Temperature: 30°F , -1°C
Dew Point: 28°F , -2°C
Humidity: 93%
Barometer: 30.06 inHg , 1017.9 hPa
Summary: Mist
Clouds: Clear
Visibility: 1 3/4 miles , 2.8 km
2024/02/27 07:43 KHFD 270743Z AUTO 00000KT 1 3/4SM BR CLR M01/M02 A3006 RMK AO2 VIS 1/2V4 T10111017
KMMK - Meriden, Connecticut, USA
Distance from station: SSW 13mi, 21km
Updated: Tue, 02/27/24 1:53am EST
Mist, Clear
Mist, Clear
 Wind from calm
Wind: Calm
Temperature: 28°F , -2°C
Dew Point: 27°F , -3°C
Humidity: 93%
Barometer: 30.07 inHg , 1018.3 hPa
Summary: Mist
Clouds: Clear
Visibility: 4 miles , 6 km
2024/02/27 06:53 KMMK 270653Z AUTO 00000KT 4SM BR CLR M02/M03 A3007 RMK AO2 SLP184 I1000 T10171033
 
KBDL - Windsor Locks, Connecticut, USA
Distance from station: N 17mi, 28km
Updated: Tue, 02/27/24 1:51am EST
Few Clouds
Few Clouds
 Wind from calm
Wind: Calm
Temperature: 30°F , -1°C
Dew Point: 27°F , -3°C
Humidity: 86%
Barometer: 30.06 inHg , 1017.9 hPa
Clouds: Few Clouds
Visibility: 10 miles , 16 km
Cloud details: Few Clouds 25000 ft
2024/02/27 06:51 KBDL 270651Z 00000KT 10SM FEW250 M01/M03 A3006 RMK AO2 SLP180 T10111028
KSNC - Chester, Connecticut, USA
Distance from station: SSE 24mi, 38km
Updated: Tue, 02/27/24 2:35am EST
Fog, Overcast
Fog, Overcast
 Wind from calm
Wind: Calm
Temperature: 32°F , 0°C
Dew Point: 32°F , 0°C
Humidity: 100%
Barometer: 30.06 inHg , 1017.9 hPa
Summary: Fog
Clouds: Overcast
Visibility: less than 1/4 mile , 0.4 km
Cloud details: Overcast 100 ft
2024/02/27 07:35 KSNC 270735Z AUTO 00000KT M1/4SM FG OVC001 00/00 A3006 RMK AO2
 
KOXC - Oxford/Waterbury, Connecticut, USA
Distance from station: SW 26mi, 42km
Updated: Tue, 02/27/24 1:51am EST
Clear
Clear
 Wind from ESE
Wind: ESE 3 mph , 6 km/h
Temperature: 34°F , 1°C
Dew Point: 30°F , -1°C
Humidity: 87%
Barometer: 30.05 inHg , 1017.6 hPa
Clouds: Clear
Visibility: 10 miles , 16 km
2024/02/27 06:51 KOXC 270651Z AUTO 11003KT 10SM CLR 01/M01 A3005 RMK AO2 SLP193 T00061006 FZRANO
KIJD - Willimantic, Connecticut, USA
Distance from station: E 28mi, 45km
Updated: Tue, 02/27/24 1:52am EST
Clear
Clear
 Wind from calm
Wind: Calm
Temperature: 28°F , -2°C
Dew Point: 27°F , -3°C
Humidity: 93%
Barometer: 30.09 inHg , 1019 hPa
Clouds: Clear
Visibility: 8 miles , 13 km
2024/02/27 06:52 KIJD 270652Z AUTO 00000KT 8SM CLR M02/M03 A3009 RMK AO2 SLP190 T10171028
 
KHVN - New Haven/Tweed, Connecticut, USA
Distance from station: SSW 30mi, 48km
Updated: Tue, 02/27/24 2:37am EST
Mist, Mostly cloudy
Mist, Mostly cloudy
 Wind from calm
Wind: Calm
Temperature: 30°F , -1°C
Dew Point: 28°F , -2°C
Humidity: 93%
Barometer: 30.06 inHg , 1017.9 hPa
Summary: Mist
Clouds: Mostly cloudy
Visibility: 4 miles , 6 km
Cloud details: Mostly cloudy 200 ft
2024/02/27 07:37 KHVN 270737Z AUTO 00000KT 4SM BR BKN002 M01/M02 A3006 RMK AO2 T10061017
KBAF - Westfield, Massachusetts, USA
Distance from station: 0 33mi, 54km
Updated: Tue, 02/27/24 1:53am EST
Clear
Clear
 Wind from calm
Wind: Calm
Temperature: 28°F , -2°C
Dew Point: 25°F , -4°C
Humidity: 86%
Barometer: 30.06 inHg , 1017.9 hPa
Clouds: Clear
Visibility: 8 miles , 13 km
2024/02/27 06:53 KBAF 270653Z AUTO 00000KT 8SM CLR M02/M04 A3006 RMK AO2 SLP185 I1000 T10221039
 
KCEF - Chicopee/Westove, Massachusetts, USA
Distance from station: NNE 37mi, 60km
Updated: Tue, 02/27/24 1:55am EST
Clear
Clear
 Wind from calm
Wind: Calm
Temperature: 28°F , -2°C
Dew Point: 27°F , -3°C
Humidity: 93%
Barometer: 30.05 inHg , 1017.6 hPa
Clouds: Clear
Visibility: 10 miles , 16 km
2024/02/27 06:55 KCEF 270655Z AUTO 00000KT 10SM CLR M02/M03 A3005 RMK AO2 SLP184 T10221030
KBDR - Bridgeport, Connecticut, USA
Distance from station: SSW 42mi, 67km
Updated: Tue, 02/27/24 1:52am EST
Clear
Clear
 Wind from NNE
Wind: NNE 6 mph , 9 km/h
Temperature: 36°F , 2°C
Wind Chill: 31°F , -1°C
Dew Point: 34°F , 1°C
Humidity: 93%
Barometer: 30.06 inHg , 1017.9 hPa
Clouds: Clear
Visibility: 10 miles , 16 km
2024/02/27 06:52 KBDR 270652Z AUTO 02005KT 10SM CLR 02/01 A3006 RMK AO2 SLP180 T00220006
 
KGON - Groton/New Londo, Connecticut, USA
Distance from station: SE 42mi, 68km
Updated: Tue, 02/27/24 1:56am EST
Fog, Overcast
Fog, Overcast
 Wind from calm
Wind: Calm
Temperature: 36°F , 2°C
Dew Point: 36°F , 2°C
Humidity: 100%
Barometer: 30.09 inHg , 1019 hPa
Summary: Fog
Clouds: Overcast
Visibility: 1/4 mile , 0.4 km
Cloud details: Overcast 200 ft
2024/02/27 06:56 KGON 270656Z AUTO 00000KT 1/4SM R05/1000FT FG VV002 02/02 A3009 RMK AO2 SLP188 T00220022
KDXR - Danbury, Connecticut, USA
Distance from station: WSW 45mi, 73km
Updated: Tue, 02/27/24 1:53am EST
Clear
Clear
 Wind from calm
Wind: Calm
Temperature: 30°F , -1°C
Dew Point: 27°F , -3°C
Humidity: 86%
Barometer: 30.06 inHg , 1017.9 hPa
Clouds: Clear
Visibility: 10 miles , 16 km
2024/02/27 06:53 KDXR 270653Z AUTO 00000KT 10SM CLR M01/M03 A3006 RMK AO2 SLP179 T10061033